createdAt,value
2018-06-27T00:00:49.666Z,81.10
2018-06-27T00:03:18.496Z,81.10
2018-06-27T00:05:47.327Z,81.10
2018-06-27T00:08:16.147Z,81.20
2018-06-27T00:10:44.993Z,81.10
2018-06-27T00:13:13.826Z,81.00
2018-06-27T00:15:42.671Z,80.90
2018-06-27T00:18:11.517Z,80.80
2018-06-27T00:20:40.410Z,80.80
2018-06-27T00:23:09.372Z,80.90
2018-06-27T00:25:38.378Z,80.90
2018-06-27T00:28:07.379Z,80.80
2018-06-27T00:33:04.690Z,80.80
2018-06-27T00:35:33.542Z,80.70
2018-06-27T00:38:02.373Z,80.70
2018-06-27T00:40:31.214Z,80.60
2018-06-27T00:43:00.052Z,80.70
2018-06-27T00:45:28.874Z,80.70
2018-06-27T00:47:57.703Z,80.70
2018-06-27T00:50:26.592Z,80.70
2018-06-27T00:52:55.447Z,80.80
2018-06-27T00:55:25.109Z,80.90
2018-06-27T00:57:53.952Z,80.90
2018-06-27T01:00:22.801Z,80.90
2018-06-27T01:02:51.618Z,81.00
2018-06-27T01:05:20.521Z,81.10
2018-06-27T01:07:49.342Z,81.10
2018-06-27T01:10:18.190Z,81.80
2018-06-27T01:12:47.058Z,81.10
2018-06-27T01:15:15.906Z,81.10
2018-06-27T01:17:50.973Z,81.10
2018-06-27T01:20:19.828Z,81.10
2018-06-27T01:22:48.838Z,81.10
2018-06-27T01:25:17.763Z,81.00
2018-06-27T01:27:47.170Z,81.00
2018-06-27T01:32:44.519Z,81.00
2018-06-27T01:35:13.757Z,80.80
2018-06-27T01:37:42.590Z,80.80
2018-06-27T01:40:11.437Z,80.80
2018-06-27T01:42:40.279Z,80.80
2018-06-27T01:45:09.159Z,80.70
2018-06-27T01:47:37.986Z,80.70
2018-06-27T01:50:06.850Z,81.30
2018-06-27T01:52:35.814Z,80.60
2018-06-27T01:55:04.737Z,80.60
2018-06-27T01:57:33.563Z,80.60
2018-06-27T02:00:02.504Z,80.60
2018-06-27T02:02:31.282Z,80.50
2018-06-27T02:05:00.123Z,80.50
2018-06-27T02:07:29.025Z,80.50
2018-06-27T02:09:57.827Z,80.40
2018-06-27T02:12:26.654Z,80.40
2018-06-27T02:14:55.498Z,80.30
2018-06-27T02:17:24.359Z,80.40
2018-06-27T02:22:21.719Z,80.40
2018-06-27T02:24:50.591Z,80.30
2018-06-27T02:27:19.557Z,80.30
2018-06-27T02:29:48.390Z,80.10
2018-06-27T02:32:17.239Z,80.20
2018-06-27T02:34:46.075Z,80.20
2018-06-27T02:37:14.914Z,80.10
2018-06-27T02:39:43.760Z,80.10
2018-06-27T02:42:12.886Z,80.80
2018-06-27T02:44:41.743Z,80.00
2018-06-27T02:47:10.576Z,80.00
2018-06-27T02:49:39.408Z,80.00
2018-06-27T02:52:08.246Z,80.00
2018-06-27T02:54:37.075Z,80.00
2018-06-27T02:57:06.183Z,80.00
2018-06-27T02:59:35.032Z,79.90
2018-06-27T03:02:03.862Z,79.90
2018-06-27T03:04:32.702Z,79.80
2018-06-27T03:07:01.681Z,79.80
2018-06-27T03:09:30.527Z,79.70
2018-06-27T03:11:59.419Z,79.70
2018-06-27T03:14:28.422Z,79.70
2018-06-27T03:16:57.394Z,79.70
2018-06-27T03:19:26.228Z,79.60
2018-06-27T03:21:55.095Z,79.70
2018-06-27T03:24:23.935Z,79.60
2018-06-27T03:26:52.815Z,79.60
2018-06-27T03:29:21.714Z,79.50
2018-06-27T03:31:50.547Z,79.50
2018-06-27T03:34:19.382Z,79.40
2018-06-27T03:36:48.227Z,79.30
2018-06-27T03:39:17.147Z,79.30
2018-06-27T03:41:45.981Z,79.30
2018-06-27T03:44:14.863Z,79.20
2018-06-27T03:46:43.783Z,79.10
2018-06-27T03:49:12.644Z,79.20
2018-06-27T03:51:41.626Z,79.10
2018-06-27T03:54:10.442Z,79.10
2018-06-27T03:56:39.312Z,79.00
2018-06-27T04:01:36.686Z,79.40
2018-06-27T04:04:05.561Z,78.70
2018-06-27T04:06:34.389Z,78.60
2018-06-27T04:09:04.165Z,78.50
2018-06-27T04:11:32.978Z,78.40
2018-06-27T04:14:01.818Z,78.30
2018-06-27T04:16:30.650Z,78.00
2018-06-27T04:18:59.515Z,77.90
2018-06-27T04:21:28.344Z,77.60
2018-06-27T04:23:57.170Z,77.50
2018-06-27T04:26:26.175Z,77.00
2018-06-27T04:28:55.098Z,76.40
2018-06-27T04:31:23.918Z,75.90
2018-06-27T04:33:52.806Z,75.40
2018-06-27T04:36:21.630Z,75.10
2018-06-27T04:38:50.635Z,75.00
2018-06-27T04:41:19.520Z,75.50
2018-06-27T04:43:48.347Z,75.80
2018-06-27T04:46:17.195Z,75.70
2018-06-27T04:48:45.998Z,75.70
2018-06-27T04:53:43.310Z,75.50
2018-06-27T04:56:12.118Z,75.60
2018-06-27T04:58:41.010Z,75.90
2018-06-27T05:01:10.039Z,75.80
2018-06-27T05:06:07.326Z,75.70
2018-06-27T05:08:36.146Z,75.60
2018-06-27T05:11:04.963Z,75.50
2018-06-27T05:13:33.782Z,75.50
2018-06-27T05:16:02.660Z,75.50
2018-06-27T05:18:31.414Z,75.50
2018-06-27T05:21:00.225Z,75.50
2018-06-27T05:23:29.050Z,75.30
2018-06-27T05:25:57.890Z,75.50
2018-06-27T05:28:26.686Z,75.40
2018-06-27T05:30:55.498Z,75.40
2018-06-27T05:33:24.330Z,75.50
2018-06-27T05:35:53.150Z,75.50
2018-06-27T05:40:50.474Z,75.50
2018-06-27T05:43:19.293Z,75.40
2018-06-27T05:45:48.100Z,75.30
2018-06-27T05:48:16.910Z,75.20
2018-06-27T05:50:45.784Z,75.30
2018-06-27T05:53:14.600Z,75.40
2018-06-27T05:55:43.414Z,75.50
2018-06-27T05:58:12.309Z,75.30
2018-06-27T06:00:41.039Z,75.40
2018-06-27T06:03:09.854Z,75.40
2018-06-27T06:05:38.666Z,75.30
2018-06-27T06:08:07.486Z,75.40
2018-06-27T06:10:36.294Z,75.40
2018-06-27T06:13:05.150Z,75.30
2018-06-27T06:15:33.966Z,75.40
2018-06-27T06:18:02.804Z,75.40
2018-06-27T06:20:31.614Z,75.50
2018-06-27T06:23:00.435Z,75.50
2018-06-27T06:25:29.335Z,76.10
2018-06-27T06:27:58.090Z,75.40
2018-06-27T06:30:26.910Z,75.40
2018-06-27T06:32:55.724Z,75.30
2018-06-27T06:35:24.530Z,75.50
2018-06-27T06:37:53.386Z,75.50
2018-06-27T06:40:22.263Z,75.70
2018-06-27T06:42:51.106Z,76.00
2018-06-27T06:45:19.922Z,76.20
2018-06-27T06:47:48.745Z,76.10
2018-06-27T06:50:17.550Z,76.10
2018-06-27T06:52:46.429Z,76.20
2018-06-27T06:55:15.258Z,76.20
2018-06-27T06:57:44.102Z,76.10
2018-06-27T07:00:12.999Z,76.20
2018-06-27T07:02:41.916Z,76.20
2018-06-27T07:05:10.702Z,76.20
2018-06-27T07:07:39.552Z,76.20
2018-06-27T07:10:08.366Z,76.30
2018-06-27T07:12:37.199Z,76.30
2018-06-27T07:15:06.030Z,76.30
2018-06-27T07:17:34.846Z,76.40
2018-06-27T07:20:03.718Z,76.40
2018-06-27T07:22:32.534Z,76.40
2018-06-27T07:25:01.386Z,76.30
2018-06-27T07:27:30.202Z,76.30
2018-06-27T07:29:59.088Z,76.40
2018-06-27T07:32:28.112Z,76.50
2018-06-27T07:34:56.954Z,76.60
2018-06-27T07:37:25.778Z,76.50
2018-06-27T07:39:54.598Z,76.60
2018-06-27T07:42:23.429Z,76.50
2018-06-27T07:44:52.250Z,76.60
2018-06-27T07:47:21.062Z,76.50
2018-06-27T07:49:49.974Z,76.60
2018-06-27T07:52:18.766Z,76.70
2018-06-27T07:54:47.590Z,76.70
2018-06-27T07:57:16.418Z,76.80
2018-06-27T07:59:45.239Z,76.70
2018-06-27T08:02:14.087Z,76.70
2018-06-27T08:04:42.897Z,76.60
2018-06-27T08:07:11.761Z,77.00
2018-06-27T08:09:40.574Z,76.90
2018-06-27T08:12:09.399Z,77.40
2018-06-27T08:14:38.380Z,77.50
2018-06-27T08:17:07.293Z,77.70
2018-06-27T08:19:36.239Z,78.50
2018-06-27T08:22:05.327Z,78.80
2018-06-27T08:24:34.774Z,79.40
2018-06-27T08:27:03.607Z,79.30
2018-06-27T08:29:32.446Z,79.70
2018-06-27T08:32:01.316Z,80.40
2018-06-27T08:34:30.125Z,79.80
2018-06-27T08:39:27.435Z,80.30
2018-06-27T08:41:56.255Z,80.50
2018-06-27T08:44:25.076Z,80.30
2018-06-27T08:46:53.920Z,80.50
2018-06-27T08:49:22.758Z,80.50
2018-06-27T08:51:51.598Z,80.50
2018-06-27T08:54:20.442Z,80.70
2018-06-27T08:56:49.242Z,80.70
2018-06-27T08:59:18.070Z,80.60
2018-06-27T09:01:46.906Z,80.60
2018-06-27T09:04:15.739Z,80.70
2018-06-27T09:06:44.558Z,80.80
2018-06-27T09:11:42.680Z,80.40
2018-06-27T09:14:11.530Z,80.40
2018-06-27T09:16:40.362Z,80.40
2018-06-27T09:19:09.194Z,80.50
2018-06-27T09:21:38.019Z,80.70
2018-06-27T09:24:06.834Z,80.50
2018-06-27T09:26:35.668Z,80.40
2018-06-27T09:29:04.599Z,80.40
2018-06-27T09:31:33.419Z,80.70
2018-06-27T09:34:02.284Z,80.90
2018-06-27T09:38:59.598Z,80.80
2018-06-27T09:41:28.658Z,80.80
2018-06-27T09:43:57.528Z,81.50
2018-06-27T09:46:26.342Z,81.50
2018-06-27T09:48:55.310Z,81.50
2018-06-27T09:51:24.139Z,81.50
2018-06-27T09:53:52.994Z,81.50
2018-06-27T09:56:22.194Z,81.10
2018-06-27T09:58:51.063Z,81.30
2018-06-27T10:01:19.937Z,81.40
2018-06-27T10:06:17.228Z,81.70
2018-06-27T10:08:46.126Z,81.60
2018-06-27T10:11:15.009Z,81.30
2018-06-27T10:13:43.986Z,81.30
2018-06-27T10:16:12.865Z,81.40
2018-06-27T10:18:41.715Z,81.00
2018-06-27T10:21:10.542Z,80.80
2018-06-27T10:23:39.358Z,81.00
2018-06-27T10:26:08.497Z,81.30
2018-06-27T10:28:38.238Z,81.30
2018-06-27T10:31:07.065Z,81.30
2018-06-27T10:33:35.899Z,80.80
2018-06-27T10:38:33.238Z,80.50
2018-06-27T10:41:02.083Z,80.10
2018-06-27T10:43:30.915Z,80.10
2018-06-27T10:45:59.755Z,80.30
2018-06-27T10:48:28.607Z,80.60
2018-06-27T10:50:57.459Z,80.60
2018-06-27T10:53:26.331Z,80.70
2018-06-27T10:55:55.151Z,80.60
2018-06-27T10:58:24.006Z,80.60
2018-06-27T11:00:52.876Z,80.70
2018-06-27T11:03:21.747Z,80.90
2018-06-27T11:05:50.556Z,80.80
2018-06-27T11:08:19.534Z,80.80
2018-06-27T11:10:48.475Z,80.70
2018-06-27T11:13:17.365Z,80.50
2018-06-27T11:15:46.523Z,80.90
2018-06-27T11:18:15.394Z,81.00
2018-06-27T11:20:44.223Z,80.70
2018-06-27T11:23:13.042Z,80.60
2018-06-27T11:25:41.886Z,80.80
2018-06-27T11:28:10.722Z,81.10
2018-06-27T11:30:39.540Z,80.70
2018-06-27T11:33:08.544Z,80.80
2018-06-27T11:35:37.371Z,81.00
2018-06-27T11:38:06.197Z,81.20
2018-06-27T11:40:35.066Z,81.10
2018-06-27T11:43:03.902Z,81.10
2018-06-27T11:45:32.750Z,81.10
2018-06-27T11:48:01.586Z,81.00
2018-06-27T11:50:30.411Z,81.10
2018-06-27T11:52:59.272Z,81.00
2018-06-27T11:55:28.114Z,81.00
2018-06-27T11:57:57.003Z,81.10
2018-06-27T12:02:54.325Z,80.60
2018-06-27T12:05:23.178Z,81.10
2018-06-27T12:07:52.052Z,81.10
2018-06-27T12:12:49.443Z,81.10
2018-06-27T12:15:18.492Z,81.10
2018-06-27T12:17:47.378Z,80.90
2018-06-27T12:20:16.271Z,80.80
2018-06-27T12:22:45.163Z,80.80
2018-06-27T12:25:14.042Z,81.00
2018-06-27T12:27:42.918Z,81.00
2018-06-27T12:30:17.737Z,80.80
2018-06-27T12:32:46.594Z,80.90
2018-06-27T12:35:15.486Z,80.80
2018-06-27T12:37:44.384Z,80.90
2018-06-27T12:40:13.263Z,81.10
2018-06-27T12:42:42.108Z,81.00
2018-06-27T12:45:11.277Z,81.00
2018-06-27T12:47:40.971Z,80.90
2018-06-27T12:50:10.187Z,80.90
2018-06-27T12:52:39.155Z,80.70
2018-06-27T12:55:11.034Z,80.60
2018-06-27T12:57:39.909Z,80.40
2018-06-27T13:00:09.605Z,80.50
2018-06-27T13:02:38.487Z,80.80
2018-06-27T13:05:07.826Z,80.90
2018-06-27T13:07:36.696Z,80.70
2018-06-27T13:10:06.957Z,80.70
2018-06-27T13:12:35.939Z,80.80
2018-06-27T13:15:05.535Z,80.70
2018-06-27T13:17:34.644Z,80.80
2018-06-27T13:20:03.607Z,81.00
2018-06-27T13:22:32.474Z,80.80
2018-06-27T13:25:01.331Z,80.20
2018-06-27T13:27:30.262Z,80.40
2018-06-27T13:29:59.134Z,80.50
2018-06-27T13:32:28.070Z,80.80
2018-06-27T13:34:56.996Z,80.80
2018-06-27T13:37:25.857Z,80.70
2018-06-27T13:39:54.716Z,80.80
2018-06-27T13:42:23.571Z,80.70
2018-06-27T13:44:52.421Z,80.70
2018-06-27T13:47:21.346Z,80.60
2018-06-27T13:49:50.239Z,80.50
2018-06-27T13:52:19.121Z,80.50
2018-06-27T13:54:58.720Z,80.60
2018-06-27T13:59:58.639Z,80.70
2018-06-27T14:02:27.568Z,80.70
2018-06-27T14:04:56.428Z,80.50
2018-06-27T14:07:25.279Z,80.60
2018-06-27T14:12:22.710Z,80.30
2018-06-27T14:14:51.564Z,80.60
2018-06-27T14:17:20.606Z,80.60
2018-06-27T14:19:49.446Z,80.70
2018-06-27T14:22:18.331Z,80.80
2018-06-27T14:24:47.177Z,80.70
2018-06-27T14:27:16.021Z,80.60
2018-06-27T14:29:44.866Z,80.90
2018-06-27T14:32:13.743Z,81.00
2018-06-27T14:34:42.635Z,80.50
2018-06-27T14:37:11.512Z,80.70
2018-06-27T14:39:40.367Z,80.70
2018-06-27T14:42:09.251Z,80.70
2018-06-27T14:44:38.205Z,80.70
2018-06-27T14:47:07.016Z,80.60
2018-06-27T14:49:35.930Z,80.70
2018-06-27T14:52:04.860Z,80.40
2018-06-27T14:54:33.643Z,80.20
2018-06-27T14:57:02.627Z,80.10
2018-06-27T14:59:31.556Z,80.10
2018-06-27T15:02:00.504Z,80.20
2018-06-27T15:04:29.564Z,80.20
2018-06-27T15:06:58.426Z,80.30
2018-06-27T15:09:27.267Z,80.20
2018-06-27T15:11:56.093Z,80.60
2018-06-27T15:14:24.982Z,80.60
2018-06-27T15:16:54.001Z,80.70
2018-06-27T15:19:23.026Z,80.80
2018-06-27T15:21:51.871Z,81.00
2018-06-27T15:24:20.743Z,81.10
2018-06-27T15:26:49.602Z,81.20
2018-06-27T15:29:18.604Z,81.10
2018-06-27T15:31:47.591Z,80.70
2018-06-27T15:34:16.503Z,80.20
2018-06-27T15:36:45.354Z,80.10
2018-06-27T15:39:14.239Z,79.90
2018-06-27T15:41:43.079Z,79.40
2018-06-27T15:44:11.932Z,79.10
2018-06-27T15:46:40.797Z,79.20
2018-06-27T15:49:10.391Z,79.00
2018-06-27T15:51:39.526Z,79.10
2018-06-27T16:16:44.239Z,79.10
2018-06-27T16:21:50.877Z,80.40
2018-06-27T16:24:19.841Z,80.30
2018-06-27T16:26:48.688Z,80.10
2018-06-27T16:29:17.544Z,80.20
2018-06-27T16:31:46.394Z,79.90
2018-06-27T16:34:15.264Z,79.50
2018-06-27T16:36:44.226Z,78.90
2018-06-27T16:39:14.451Z,79.20
2018-06-27T16:41:43.327Z,79.40
2018-06-27T16:44:12.926Z,79.20
2018-06-27T16:46:42.093Z,79.00
2018-06-27T16:49:11.802Z,79.90
2018-06-27T16:51:40.713Z,80.40
2018-06-27T16:56:43.883Z,80.60
2018-06-27T16:59:12.714Z,80.50
2018-06-27T17:01:41.614Z,80.20
2018-06-27T17:04:10.702Z,80.00
2018-06-27T17:06:39.484Z,79.60
2018-06-27T17:09:09.300Z,79.70
2018-06-27T17:11:38.550Z,79.40
2018-06-27T17:16:36.136Z,79.30
2018-06-27T17:19:05.142Z,79.30
2018-06-27T17:21:33.984Z,79.20
2018-06-27T17:24:02.877Z,78.90
2018-06-27T17:26:31.739Z,79.10
2018-06-27T17:29:00.599Z,79.00
2018-06-27T17:31:29.455Z,78.80
2018-06-27T17:36:26.967Z,78.80
2018-06-27T17:41:24.407Z,78.70
2018-06-27T17:43:53.267Z,78.60
2018-06-27T17:46:22.115Z,78.60
2018-06-27T17:48:50.955Z,78.50
2018-06-27T17:51:19.794Z,78.40
2018-06-27T17:53:48.663Z,78.40
2018-06-27T17:56:17.491Z,78.30
2018-06-27T17:58:46.331Z,78.20
2018-06-27T18:01:15.182Z,78.10
2018-06-27T18:03:44.267Z,78.10
2018-06-27T18:06:13.102Z,78.30
2018-06-27T18:08:42.036Z,78.20
2018-06-27T18:11:10.875Z,78.20
2018-06-27T18:13:39.745Z,78.10
2018-06-27T18:16:08.762Z,78.10
2018-06-27T18:18:37.615Z,78.40
2018-06-27T18:21:07.195Z,78.30
2018-06-27T18:23:36.547Z,78.30
2018-06-27T18:26:05.739Z,78.10
2018-06-27T18:28:34.566Z,78.10
2018-06-27T18:31:03.415Z,77.90
2018-06-27T18:33:32.371Z,77.80
2018-06-27T18:36:01.227Z,77.90
2018-06-27T18:38:30.122Z,78.20
2018-06-27T18:40:58.966Z,78.40
2018-06-27T18:43:27.858Z,78.50
2018-06-27T18:45:56.707Z,78.80
2018-06-27T18:48:25.568Z,79.10
2018-06-27T18:50:54.421Z,79.20
2018-06-27T18:53:23.319Z,79.70
2018-06-27T18:58:20.647Z,79.30
2018-06-27T19:00:49.622Z,79.50
2018-06-27T19:03:18.564Z,79.50
2018-06-27T19:05:47.355Z,79.70
2018-06-27T19:10:44.735Z,79.40
2018-06-27T19:13:13.576Z,79.40
2018-06-27T19:15:42.427Z,79.90
2018-06-27T19:18:11.310Z,80.20
2018-06-27T19:20:40.243Z,80.50
2018-06-27T19:23:09.096Z,81.10
2018-06-27T19:25:37.942Z,81.60
2018-06-27T19:28:06.779Z,81.90
2018-06-27T19:30:35.684Z,82.20
2018-06-27T19:33:04.559Z,83.10
2018-06-27T19:35:33.404Z,83.50
2018-06-27T19:38:02.227Z,83.80
2018-06-27T19:40:31.156Z,84.00
2018-06-27T19:43:00.052Z,84.30
2018-06-27T19:45:30.016Z,84.70
2018-06-27T19:47:58.846Z,85.10
2018-06-27T19:50:27.687Z,85.30
2018-06-27T19:52:56.526Z,85.70
2018-06-27T19:55:25.546Z,86.40
2018-06-27T20:00:22.699Z,87.00
2018-06-27T20:02:51.639Z,87.20
2018-06-27T20:05:20.636Z,87.00
2018-06-27T20:07:49.518Z,87.60
2018-06-27T20:10:18.489Z,88.20
2018-06-27T20:12:47.248Z,88.50
2018-06-27T20:15:16.194Z,88.80
2018-06-27T20:17:44.962Z,88.90
2018-06-27T20:20:13.864Z,89.10
2018-06-27T20:22:42.757Z,89.60
2018-06-27T20:27:40.116Z,89.70
2018-06-27T20:32:37.518Z,90.10
2018-06-27T20:35:06.562Z,90.10
2018-06-27T20:37:35.450Z,90.30
2018-06-27T20:40:04.336Z,90.30
2018-06-27T20:42:33.215Z,90.20
2018-06-27T20:45:02.113Z,90.50
2018-06-27T20:47:30.958Z,90.30
2018-06-27T20:49:59.828Z,90.30
2018-06-27T20:52:28.746Z,90.30
2018-06-27T20:54:57.663Z,90.50
2018-06-27T20:57:26.582Z,90.80
2018-06-27T20:59:55.451Z,91.00
2018-06-27T21:02:24.307Z,91.00
2018-06-27T21:04:53.155Z,91.10
2018-06-27T21:07:22.019Z,91.10
2018-06-27T21:09:50.896Z,91.10
2018-06-27T21:12:19.746Z,91.30
2018-06-27T21:14:48.726Z,91.10
2018-06-27T21:17:17.475Z,91.20
2018-06-27T21:19:46.347Z,91.00
2018-06-27T21:22:15.231Z,91.30
2018-06-27T21:24:44.074Z,91.30
2018-06-27T21:27:12.912Z,90.90
2018-06-27T21:29:41.751Z,90.80
2018-06-27T21:32:10.615Z,90.70
2018-06-27T21:34:39.518Z,90.70
2018-06-27T21:37:08.372Z,90.40
2018-06-27T21:39:37.222Z,90.60
2018-06-27T21:42:06.095Z,90.90
2018-06-27T21:44:36.083Z,90.80
2018-06-27T21:47:05.323Z,91.10
2018-06-27T21:49:34.571Z,91.10
2018-06-27T21:52:03.800Z,90.50
2018-06-27T21:54:33.066Z,90.30
2018-06-27T21:57:01.890Z,90.90
2018-06-27T21:59:30.741Z,90.70
2018-06-27T22:01:59.600Z,90.40
2018-06-27T22:04:28.563Z,90.30
2018-06-27T22:06:57.426Z,90.50
2018-06-27T22:09:26.772Z,90.60
2018-06-27T22:11:55.668Z,90.90
2018-06-27T22:14:24.506Z,91.20
2018-06-27T22:16:53.421Z,91.30
2018-06-27T22:19:22.282Z,91.40
2018-06-27T22:24:19.615Z,90.30
2018-06-27T22:26:48.503Z,89.70
2018-06-27T22:29:17.349Z,89.10
2018-06-27T22:31:46.282Z,88.60
2018-06-27T22:34:15.146Z,88.30
2018-06-27T22:36:43.999Z,88.00
2018-06-27T22:39:13.779Z,87.90
2018-06-27T22:41:42.759Z,87.70
2018-06-27T22:44:11.618Z,87.60
2018-06-27T22:46:40.463Z,87.60
2018-06-27T22:49:09.298Z,87.60
2018-06-27T22:51:38.122Z,87.50
2018-06-27T22:54:07.018Z,87.40
2018-06-27T22:56:35.883Z,87.40
2018-06-27T22:59:04.700Z,87.20
2018-06-27T23:01:33.542Z,87.10
2018-06-27T23:04:02.400Z,87.20
2018-06-27T23:06:31.182Z,87.10
2018-06-27T23:09:00.029Z,87.00
2018-06-27T23:11:28.827Z,86.90
2018-06-27T23:13:57.647Z,86.90
2018-06-27T23:18:55.937Z,86.80
2018-06-27T23:21:24.755Z,86.70
2018-06-27T23:23:53.592Z,86.60
2018-06-27T23:26:22.423Z,86.60
2018-06-27T23:28:51.280Z,86.60
2018-06-27T23:31:20.099Z,86.50
2018-06-27T23:33:48.914Z,87.20
2018-06-27T23:36:17.730Z,86.50
2018-06-27T23:38:46.650Z,86.50
2018-06-27T23:43:43.990Z,86.40
2018-06-27T23:46:12.870Z,86.30
2018-06-27T23:48:41.691Z,86.30
2018-06-27T23:53:39.015Z,86.30
2018-06-27T23:56:07.840Z,86.20
2018-06-27T23:58:36.712Z,86.20
